createdAt,value
2023-04-24T06:38:06.002Z,24.00
2023-04-24T06:38:17.411Z,29.60
2023-04-24T06:38:27.385Z,30.30
2023-04-24T06:38:37.333Z,30.40
2023-04-24T06:38:47.522Z,30.70
2023-04-24T06:38:57.572Z,32.00
2023-04-24T06:39:07.817Z,34.40
2023-04-24T06:39:17.951Z,33.00
2023-04-24T06:39:28.046Z,40.70
2023-04-24T06:39:38.118Z,141.80
2023-04-24T06:39:48.327Z,239.90
2023-04-24T06:39:58.383Z,148.50
2023-04-24T06:40:08.722Z,132.90
2023-04-24T06:40:18.684Z,132.80
2023-04-24T06:40:28.774Z,110.90
2023-04-24T06:40:39.541Z,100.70
2023-04-24T06:40:49.102Z,90.20
2023-04-24T06:40:59.066Z,74.00
2023-04-24T06:41:09.329Z,64.10
2023-04-24T06:41:19.344Z,54.70
2023-04-24T06:41:29.492Z,54.00
2023-04-24T06:41:39.614Z,51.80
2023-04-24T06:41:49.698Z,54.20
2023-04-24T06:41:59.811Z,50.40
2023-04-24T06:42:09.938Z,48.10
2023-04-24T06:42:19.908Z,46.60
2023-04-24T06:42:30.141Z,47.70
2023-04-24T06:42:40.376Z,51.10
2023-04-24T06:42:50.339Z,56.10
2023-04-24T06:43:00.360Z,55.50
2023-04-24T06:43:10.555Z,55.80
2023-04-24T06:43:20.763Z,62.70
2023-04-24T06:43:31.836Z,62.90
2023-04-24T06:43:40.880Z,58.90
2023-04-24T06:43:51.084Z,56.40
2023-04-24T06:44:01.367Z,60.60
2023-04-24T06:44:11.390Z,68.30
2023-04-24T06:44:21.599Z,67.80
2023-04-24T06:44:41.879Z,69.30
2023-04-24T06:44:51.921Z,66.20
2023-04-24T06:45:02.080Z,60.70
2023-04-24T06:45:12.269Z,54.60
2023-04-24T06:45:22.278Z,55.20
2023-04-24T06:45:32.457Z,58.00
2023-04-24T06:45:42.593Z,57.50
2023-04-24T06:45:52.699Z,57.20
2023-04-24T06:46:02.877Z,61.60
2023-04-24T06:46:12.901Z,59.90
2023-04-24T06:46:23.056Z,55.20
2023-04-24T06:46:33.273Z,52.90
2023-04-24T06:46:43.291Z,62.60
2023-04-24T06:46:53.447Z,67.70
2023-04-24T06:47:03.585Z,65.00
2023-04-24T06:47:13.763Z,65.50
2023-04-24T06:47:23.822Z,65.30
2023-04-24T06:47:34.028Z,61.00
2023-04-24T06:47:44.224Z,43.60
2023-04-24T06:47:54.327Z,45.40
2023-04-24T06:48:04.462Z,46.20
2023-04-24T06:48:14.546Z,45.40
2023-04-24T06:48:24.538Z,44.10
2023-04-24T06:48:34.755Z,62.20
2023-04-24T06:48:44.789Z,62.00
2023-04-24T06:48:55.023Z,59.50
2023-04-24T06:49:05.091Z,58.60
2023-04-24T06:49:15.291Z,62.30
2023-04-24T06:49:25.284Z,64.90
2023-04-24T06:49:35.610Z,50.80
2023-04-24T06:49:45.677Z,57.50
2023-04-24T06:49:55.719Z,58.10
2023-04-24T06:50:05.941Z,60.20
2023-04-24T06:50:15.998Z,61.20
2023-04-24T06:50:26.009Z,63.70
2023-04-24T06:50:36.204Z,67.50
2023-04-24T06:50:46.237Z,69.10
2023-04-24T06:50:56.434Z,70.90
2023-04-24T06:51:06.500Z,72.30
2023-04-24T06:51:16.591Z,72.00
2023-04-24T06:51:26.702Z,69.20
2023-04-24T06:51:36.869Z,62.30
2023-04-24T06:51:47.019Z,64.20
2023-04-24T06:51:57.031Z,71.30
2023-04-24T06:52:07.126Z,72.40
2023-04-24T06:52:17.288Z,69.70
2023-04-24T06:52:27.379Z,68.00
2023-04-24T06:52:37.607Z,65.00
2023-04-24T06:52:47.704Z,64.70
2023-04-24T06:52:57.735Z,59.90
2023-04-24T06:53:07.844Z,55.80
2023-04-24T06:53:18.025Z,55.60
2023-04-24T06:53:28.143Z,56.70
2023-04-24T06:53:38.308Z,57.00
2023-04-24T06:53:49.490Z,58.80
2023-04-24T06:53:58.530Z,54.10
2023-04-24T06:54:08.651Z,55.30
2023-04-24T06:54:18.971Z,54.90
2023-04-24T06:54:29.108Z,55.50
2023-04-24T06:54:39.041Z,53.00
2023-04-24T06:54:49.211Z,45.20
2023-04-24T06:54:59.284Z,42.50
2023-04-24T06:55:09.287Z,40.70
2023-04-24T06:55:19.518Z,68.90
2023-04-24T06:55:29.607Z,69.00
2023-04-24T06:55:39.647Z,83.70
2023-04-24T06:55:49.751Z,90.40
2023-04-24T06:55:59.881Z,92.60
2023-04-24T06:56:10.007Z,100.50
2023-04-24T06:56:20.188Z,87.70
2023-04-24T06:56:30.293Z,89.30
2023-04-24T06:56:40.476Z,77.60
2023-04-24T06:56:50.377Z,74.10
2023-04-24T06:57:00.744Z,71.40
2023-04-24T06:57:10.746Z,65.50
2023-04-24T06:57:20.918Z,54.60
2023-04-24T06:57:31.050Z,51.40
2023-04-24T06:57:41.157Z,47.50
2023-04-24T06:57:51.293Z,50.10
2023-04-24T06:58:01.491Z,51.20
2023-04-24T06:58:11.613Z,50.10
2023-04-24T06:58:21.893Z,44.20
2023-04-24T06:58:31.810Z,44.60
2023-04-24T06:58:41.957Z,47.60
2023-04-24T06:58:52.512Z,47.00
2023-04-24T06:59:02.198Z,49.60
2023-04-24T06:59:12.197Z,47.20
2023-04-24T06:59:22.341Z,47.80
2023-04-24T06:59:32.446Z,47.80
2023-04-24T06:59:42.850Z,50.60
2023-04-24T06:59:52.779Z,50.50
2023-04-24T07:00:02.919Z,50.50
2023-04-24T07:00:12.923Z,55.20
2023-04-24T07:00:23.181Z,55.70
2023-04-24T07:00:33.379Z,58.20
2023-04-24T07:00:43.268Z,54.50
2023-04-24T07:00:53.405Z,50.50
2023-04-24T07:01:03.533Z,49.60
2023-04-24T07:01:13.696Z,48.10
2023-04-24T07:01:23.963Z,44.80
2023-04-24T07:01:33.873Z,41.90
2023-04-24T07:01:44.111Z,43.20
2023-04-24T07:01:55.563Z,46.50
2023-04-24T07:02:04.339Z,50.00
2023-04-24T07:02:14.485Z,52.20
2023-04-24T07:02:24.570Z,58.10
2023-04-24T07:02:34.772Z,59.80
2023-04-24T07:02:44.910Z,56.00
2023-04-24T07:02:54.939Z,51.90
2023-04-24T07:03:05.026Z,47.50
2023-04-24T07:03:15.213Z,47.10
2023-04-24T07:03:25.468Z,43.20
2023-04-24T07:03:35.670Z,42.40
2023-04-24T07:03:45.729Z,45.10
2023-04-24T07:03:55.883Z,45.90
2023-04-24T07:04:06.086Z,44.10
2023-04-24T07:04:16.065Z,41.50
2023-04-24T07:04:26.241Z,39.50
2023-04-24T07:04:36.231Z,39.70
2023-04-24T07:04:46.250Z,40.20
2023-04-24T07:04:56.426Z,43.50
2023-04-24T07:05:06.462Z,43.60
2023-04-24T07:05:16.663Z,44.20
2023-04-24T07:05:26.858Z,45.30
2023-04-24T07:05:36.802Z,44.40
2023-04-24T07:05:47.200Z,42.00
2023-04-24T07:05:57.963Z,42.10
2023-04-24T07:06:07.357Z,78.60
2023-04-24T07:06:17.443Z,62.90
2023-04-24T07:06:27.547Z,51.70
2023-04-24T07:06:37.733Z,49.80
2023-04-24T07:06:47.922Z,49.10
2023-04-24T07:07:08.950Z,43.20
2023-04-24T07:07:18.334Z,42.80
2023-04-24T07:07:28.458Z,44.40
2023-04-24T07:07:38.460Z,44.90
2023-04-24T07:07:48.736Z,43.10
2023-04-24T07:07:58.833Z,41.50
2023-04-24T07:08:19.106Z,38.30
2023-04-24T07:08:29.064Z,38.90
2023-04-24T07:08:39.295Z,39.40
2023-04-24T07:08:49.953Z,40.30
2023-04-24T07:08:59.601Z,38.90
2023-04-24T07:09:09.653Z,37.70
2023-04-24T07:09:19.880Z,60.70
2023-04-24T07:09:29.836Z,91.80
2023-04-24T07:09:40.059Z,93.00
2023-04-24T07:09:50.051Z,90.60
2023-04-24T07:10:00.200Z,89.40
2023-04-24T07:10:10.441Z,96.00
2023-04-24T07:10:20.544Z,77.80
2023-04-24T07:10:30.666Z,57.70
2023-04-24T07:10:40.679Z,56.20
2023-04-24T07:10:50.844Z,59.60
2023-04-24T07:11:01.015Z,68.00
2023-04-24T07:11:11.205Z,62.60
2023-04-24T07:11:21.285Z,52.20
2023-04-24T07:11:31.359Z,49.10
2023-04-24T07:11:41.510Z,49.40
2023-04-24T07:11:51.635Z,80.30
2023-04-24T07:12:01.717Z,77.90
2023-04-24T07:12:11.812Z,81.80
2023-04-24T07:12:22.006Z,80.10
2023-04-24T07:12:32.157Z,85.50
2023-04-24T07:12:42.251Z,89.60
2023-04-24T07:12:52.279Z,55.80
2023-04-24T07:13:02.571Z,54.70
2023-04-24T07:13:12.643Z,57.80
2023-04-24T07:13:22.840Z,58.30
2023-04-24T07:13:33.012Z,56.60
2023-04-24T07:13:43.335Z,55.70
2023-04-24T07:13:53.067Z,53.80
2023-04-24T07:14:03.246Z,51.20
2023-04-24T07:14:13.430Z,47.30
2023-04-24T07:14:23.582Z,50.50
2023-04-24T07:14:33.743Z,51.60
2023-04-24T07:14:43.931Z,52.40
2023-04-24T07:14:53.916Z,52.00
2023-04-24T07:15:03.952Z,49.90
2023-04-24T07:15:14.179Z,50.30
2023-04-24T07:15:24.237Z,44.20
2023-04-24T07:15:34.367Z,36.20
2023-04-24T07:15:44.415Z,41.80
2023-04-24T07:15:54.604Z,50.00
2023-04-24T07:16:04.712Z,50.20
2023-04-24T07:16:14.813Z,55.60
2023-04-24T07:16:25.028Z,57.20
2023-04-24T07:16:35.044Z,59.10
2023-04-24T07:26:21.218Z,57.50
2023-04-24T07:26:32.917Z,48.60
2023-04-24T07:26:42.449Z,45.20
2023-04-24T07:26:52.756Z,43.40
2023-04-24T07:27:02.771Z,38.80
2023-04-24T07:27:12.837Z,33.00
2023-04-24T07:27:23.066Z,31.20
2023-04-24T07:27:33.170Z,31.10
2023-04-24T07:27:43.423Z,27.40
2023-04-24T07:27:53.411Z,25.50
2023-04-24T07:28:03.620Z,23.80
2023-04-24T07:28:13.589Z,21.70
2023-04-24T07:28:23.804Z,24.20
2023-04-24T07:28:33.884Z,24.10
2023-04-24T07:28:44.085Z,24.80
2023-04-24T07:28:54.118Z,25.60
2023-04-24T07:29:04.320Z,24.40
2023-04-24T07:29:14.356Z,26.30
2023-04-24T07:29:24.485Z,26.20
2023-04-24T07:29:34.664Z,27.00
2023-04-24T07:29:45.174Z,25.60
2023-04-24T07:29:54.816Z,23.70
2023-04-24T07:30:04.936Z,25.00
2023-04-24T07:30:15.053Z,22.10
2023-04-24T07:30:25.188Z,22.40
2023-04-24T07:30:35.259Z,20.80
2023-04-24T07:30:45.510Z,23.50
2023-04-24T07:30:55.535Z,23.70
2023-04-24T07:31:05.682Z,20.70
2023-04-24T07:31:15.735Z,24.30
2023-04-24T07:31:25.974Z,21.10
2023-04-24T07:31:36.068Z,22.30
2023-04-24T07:31:46.241Z,19.90
2023-04-24T07:31:56.260Z,19.80
2023-04-24T07:32:06.525Z,21.60
2023-04-24T07:32:16.470Z,19.70
2023-04-24T07:32:26.657Z,21.60
2023-04-24T07:32:36.749Z,20.40
2023-04-24T07:32:46.914Z,20.00
2023-04-24T07:32:56.970Z,20.10
2023-04-24T07:33:07.170Z,20.50
2023-04-24T07:33:17.314Z,21.40
2023-04-24T07:33:27.959Z,24.30
2023-04-24T07:33:37.339Z,25.50
2023-04-24T07:33:47.472Z,27.90
2023-04-24T07:33:57.607Z,29.40
2023-04-24T07:34:08.004Z,31.00
